createdAt,value
2018-12-31T00:00:51.251Z,1009.2
2018-12-31T00:01:51.921Z,1009.1
2018-12-31T00:02:52.592Z,1009.2
2018-12-31T00:03:53.263Z,1009.1
2018-12-31T00:04:53.937Z,1009.2
2018-12-31T00:05:54.608Z,1009.2
2018-12-31T00:06:55.279Z,1009.2
2018-12-31T00:07:55.952Z,1009.2
2018-12-31T00:08:56.624Z,1009.2
2018-12-31T00:09:57.297Z,1009.2
2018-12-31T00:10:57.967Z,1009.1
2018-12-31T00:11:58.640Z,1009.1
2018-12-31T00:12:59.315Z,1009.2
2018-12-31T00:14:00.033Z,1009.1
2018-12-31T00:15:00.708Z,1009.1
2018-12-31T00:16:01.379Z,1009.1
2018-12-31T00:17:02.050Z,1009.1
2018-12-31T00:18:02.722Z,1009.1
2018-12-31T00:19:03.395Z,1009.1
2018-12-31T00:20:04.066Z,1009.1
2018-12-31T00:21:04.739Z,1009.1
2018-12-31T00:22:05.411Z,1009.1
2018-12-31T00:23:06.082Z,1009.1
2018-12-31T00:24:06.803Z,1009.1
2018-12-31T00:25:07.525Z,1009.1
2018-12-31T00:26:08.196Z,1009.1
2018-12-31T00:27:08.871Z,1009.1
2018-12-31T00:28:09.549Z,1009.1
2018-12-31T00:29:10.215Z,1009.1
2018-12-31T00:30:10.886Z,1009.0
2018-12-31T00:31:11.556Z,1009.1
2018-12-31T00:32:12.227Z,1009.1
2018-12-31T00:33:12.902Z,1009.1
2018-12-31T00:34:13.572Z,1009.1
2018-12-31T00:35:14.244Z,1009.1
2018-12-31T00:36:14.915Z,1009.1
2018-12-31T00:37:15.588Z,1009.1
2018-12-31T00:38:16.262Z,1009.1
2018-12-31T00:39:16.931Z,1009.1
2018-12-31T00:40:17.606Z,1009.2
2018-12-31T00:41:18.278Z,1009.2
2018-12-31T00:42:18.948Z,1009.1
2018-12-31T00:43:19.621Z,1009.1
2018-12-31T00:44:20.293Z,1009.1
2018-12-31T00:45:20.966Z,1009.1
2018-12-31T00:46:21.636Z,1009.0
2018-12-31T00:47:22.311Z,1009.0
2018-12-31T00:48:22.982Z,1009.0
2018-12-31T00:49:23.653Z,1009.0
2018-12-31T00:50:24.327Z,1008.9
2018-12-31T00:51:24.999Z,1008.9
2018-12-31T00:52:25.670Z,1009.0
2018-12-31T00:53:26.343Z,1009.0
2018-12-31T00:54:27.016Z,1008.9
2018-12-31T00:55:27.688Z,1008.9
2018-12-31T00:56:28.359Z,1008.8
2018-12-31T00:57:29.031Z,1008.8
2018-12-31T00:58:29.704Z,1008.8
2018-12-31T00:59:30.375Z,1008.8
2018-12-31T01:00:31.048Z,1008.8
2018-12-31T01:01:31.720Z,1008.8
2018-12-31T01:02:32.392Z,1008.8
2018-12-31T01:03:33.065Z,1008.8
2018-12-31T01:04:33.737Z,1008.7
2018-12-31T01:05:34.408Z,1008.8
2018-12-31T01:06:35.081Z,1008.8
2018-12-31T01:07:35.752Z,1008.8
2018-12-31T01:08:36.423Z,1008.9
2018-12-31T01:09:37.094Z,1008.9
2018-12-31T01:10:37.767Z,1008.8
2018-12-31T01:11:38.439Z,1008.8
2018-12-31T01:12:39.111Z,1008.8
2018-12-31T01:13:39.784Z,1008.9
2018-12-31T01:14:40.505Z,1008.9
2018-12-31T01:15:41.177Z,1008.9
2018-12-31T01:16:41.851Z,1008.8
2018-12-31T01:17:42.524Z,1008.9
2018-12-31T01:18:43.195Z,1008.8
2018-12-31T01:19:43.867Z,1008.8
2018-12-31T01:20:44.543Z,1008.8
2018-12-31T01:21:45.211Z,1008.7
2018-12-31T01:22:45.931Z,1008.8
2018-12-31T01:23:46.602Z,1008.8
2018-12-31T01:24:47.275Z,1008.7
2018-12-31T01:25:48.041Z,1008.7
2018-12-31T01:26:48.662Z,1008.7
2018-12-31T01:27:49.334Z,1008.6
2018-12-31T01:28:50.005Z,1008.6
2018-12-31T01:29:50.678Z,1008.6
2018-12-31T01:30:51.351Z,1008.6
2018-12-31T01:31:52.023Z,1008.6
2018-12-31T01:32:52.695Z,1008.6
2018-12-31T01:33:53.374Z,1008.6
2018-12-31T01:34:54.037Z,1008.6
2018-12-31T01:35:54.708Z,1008.6
2018-12-31T01:36:55.431Z,1008.5
2018-12-31T01:37:56.101Z,1008.6
2018-12-31T01:38:56.773Z,1008.6
2018-12-31T01:39:57.522Z,1008.6
2018-12-31T01:40:58.152Z,1008.6
2018-12-31T01:41:58.820Z,1008.6
2018-12-31T01:42:59.496Z,1008.6
2018-12-31T01:44:00.166Z,1008.6
2018-12-31T01:45:00.836Z,1008.6
2018-12-31T01:46:01.556Z,1008.6
2018-12-31T01:47:02.229Z,1008.7
2018-12-31T01:48:02.951Z,1008.6
2018-12-31T01:49:03.576Z,1008.7
2018-12-31T01:50:04.249Z,1008.7
2018-12-31T01:51:11.330Z,1008.7
2018-12-31T01:52:06.585Z,1008.7
2018-12-31T01:53:07.254Z,1008.7
2018-12-31T01:54:07.925Z,1008.6
2018-12-31T01:55:08.597Z,1008.6
2018-12-31T01:56:09.294Z,1008.6
2018-12-31T01:57:09.970Z,1008.6
2018-12-31T01:58:10.636Z,1008.6
2018-12-31T01:59:11.307Z,1008.6
2018-12-31T02:00:11.980Z,1008.6
2018-12-31T02:01:12.743Z,1008.6
2018-12-31T02:02:13.410Z,1008.6
2018-12-31T02:03:14.083Z,1008.6
2018-12-31T02:04:14.761Z,1008.6
2018-12-31T02:05:15.430Z,1008.6
2018-12-31T02:06:16.098Z,1008.6
2018-12-31T02:07:16.772Z,1008.7
2018-12-31T02:08:17.444Z,1008.7
2018-12-31T02:09:18.114Z,1008.7
2018-12-31T02:10:18.788Z,1008.6
2018-12-31T02:11:19.458Z,1008.7
2018-12-31T02:12:20.132Z,1008.7
2018-12-31T02:13:20.801Z,1008.7
2018-12-31T02:14:21.475Z,1008.7
2018-12-31T02:15:22.145Z,1008.7
2018-12-31T02:16:22.846Z,1008.7
2018-12-31T02:17:23.516Z,1008.7
2018-12-31T02:18:24.187Z,1008.7
2018-12-31T02:19:24.859Z,1008.7
2018-12-31T02:20:25.531Z,1008.8
2018-12-31T02:21:26.203Z,1008.8
2018-12-31T02:22:26.876Z,1008.8
2018-12-31T02:23:27.547Z,1008.8
2018-12-31T02:24:28.220Z,1008.8
2018-12-31T02:25:28.893Z,1008.8
2018-12-31T02:26:29.565Z,1008.8
2018-12-31T02:27:30.239Z,1008.8
2018-12-31T02:28:30.909Z,1008.7
2018-12-31T02:29:31.599Z,1008.7
2018-12-31T02:30:32.250Z,1008.6
2018-12-31T02:31:32.920Z,1008.7
2018-12-31T02:32:33.595Z,1008.7
2018-12-31T02:33:34.266Z,1008.7
2018-12-31T02:34:34.938Z,1008.7
2018-12-31T02:35:35.610Z,1008.7
2018-12-31T02:36:36.332Z,1008.7
2018-12-31T02:37:37.005Z,1008.7
2018-12-31T02:38:37.677Z,1008.7
2018-12-31T02:39:38.352Z,1008.7
2018-12-31T02:40:39.023Z,1008.7
2018-12-31T02:41:39.751Z,1008.6
2018-12-31T02:42:40.374Z,1008.6
2018-12-31T02:43:41.045Z,1008.6
2018-12-31T02:44:41.718Z,1008.7
2018-12-31T02:45:42.394Z,1008.7
2018-12-31T02:46:43.068Z,1008.7
2018-12-31T02:47:43.784Z,1008.7
2018-12-31T02:48:44.456Z,1008.7
2018-12-31T02:49:45.127Z,1008.7
2018-12-31T02:50:45.801Z,1008.7
2018-12-31T02:51:46.478Z,1008.7
2018-12-31T02:52:47.194Z,1008.7
2018-12-31T02:53:47.918Z,1008.7
2018-12-31T02:54:48.544Z,1008.7
2018-12-31T02:55:49.261Z,1008.8
2018-12-31T02:56:49.932Z,1008.8
2018-12-31T02:57:50.602Z,1008.8
2018-12-31T02:58:51.275Z,1008.8
2018-12-31T02:59:51.947Z,1008.8
2018-12-31T03:00:52.620Z,1008.8
2018-12-31T03:01:53.294Z,1008.8
2018-12-31T03:02:53.965Z,1008.8
2018-12-31T03:03:54.636Z,1008.8
2018-12-31T03:04:55.313Z,1008.8
2018-12-31T03:05:56.029Z,1008.8
2018-12-31T03:06:56.701Z,1008.8
2018-12-31T03:07:57.371Z,1008.9
2018-12-31T03:08:58.055Z,1008.9
2018-12-31T03:09:58.716Z,1008.9
2018-12-31T03:10:59.397Z,1008.9
2018-12-31T03:12:00.059Z,1008.9
2018-12-31T03:13:00.735Z,1008.9
2018-12-31T03:14:01.455Z,1008.9
2018-12-31T03:15:02.130Z,1008.9
2018-12-31T03:16:02.850Z,1008.9
2018-12-31T03:17:03.520Z,1008.9
2018-12-31T03:18:04.194Z,1008.9
2018-12-31T03:19:04.866Z,1009.0
2018-12-31T03:20:05.541Z,1008.9
2018-12-31T03:21:06.296Z,1009.0
2018-12-31T03:22:06.967Z,1008.8
2018-12-31T03:23:07.640Z,1008.8
2018-12-31T03:24:08.311Z,1008.8
2018-12-31T03:25:08.984Z,1008.8
2018-12-31T03:26:09.654Z,1008.7
2018-12-31T03:27:10.331Z,1008.7
2018-12-31T03:28:11.000Z,1008.7
2018-12-31T03:29:11.676Z,1008.6
2018-12-31T03:30:12.343Z,1008.6
2018-12-31T03:31:13.016Z,1008.7
2018-12-31T03:32:13.735Z,1008.6
2018-12-31T03:33:14.406Z,1008.6
2018-12-31T03:34:15.079Z,1008.6
2018-12-31T03:35:15.749Z,1008.5
2018-12-31T03:36:16.422Z,1008.5
2018-12-31T03:37:17.093Z,1008.5
2018-12-31T03:38:17.767Z,1008.6
2018-12-31T03:39:18.437Z,1008.5
2018-12-31T03:40:19.110Z,1008.5
2018-12-31T03:41:19.782Z,1008.6
2018-12-31T03:42:20.454Z,1008.5
2018-12-31T03:43:21.126Z,1008.6
2018-12-31T03:44:21.798Z,1008.6
2018-12-31T03:45:22.478Z,1008.6
2018-12-31T03:46:23.145Z,1008.6
2018-12-31T03:47:23.815Z,1008.6
2018-12-31T03:48:24.493Z,1008.5
2018-12-31T03:49:25.158Z,1008.6
2018-12-31T03:50:25.829Z,1008.6
2018-12-31T03:51:26.501Z,1008.7
2018-12-31T03:52:27.176Z,1008.7
2018-12-31T03:53:27.857Z,1008.7
2018-12-31T03:54:28.518Z,1008.8
2018-12-31T03:55:29.190Z,1008.7
2018-12-31T03:56:29.862Z,1008.7
2018-12-31T03:57:30.532Z,1008.7
2018-12-31T03:58:31.205Z,1008.7
2018-12-31T03:59:31.877Z,1008.7
2018-12-31T04:00:32.548Z,1008.7
2018-12-31T04:01:33.220Z,1008.6
2018-12-31T04:02:33.893Z,1008.7
2018-12-31T04:03:34.565Z,1008.7
2018-12-31T04:04:35.237Z,1008.7
2018-12-31T04:05:35.910Z,1008.7
2018-12-31T04:06:36.632Z,1008.7
2018-12-31T04:07:37.302Z,1008.7
2018-12-31T04:08:37.978Z,1008.7
2018-12-31T04:09:38.651Z,1008.7
2018-12-31T04:10:39.326Z,1008.8
2018-12-31T04:11:39.996Z,1008.7
2018-12-31T04:12:40.670Z,1008.7
2018-12-31T04:13:41.341Z,1008.7
2018-12-31T04:14:42.012Z,1008.7
2018-12-31T04:15:42.683Z,1008.7
2018-12-31T04:16:43.355Z,1008.7
2018-12-31T04:17:44.026Z,1008.7
2018-12-31T04:18:44.708Z,1008.8
2018-12-31T04:19:45.372Z,1008.8
2018-12-31T04:20:46.042Z,1008.7
2018-12-31T04:21:46.716Z,1008.7
2018-12-31T04:22:47.390Z,1008.7
2018-12-31T04:23:48.059Z,1008.7
2018-12-31T04:24:48.730Z,1008.6
2018-12-31T04:25:49.402Z,1008.6
2018-12-31T04:26:50.077Z,1008.7
2018-12-31T04:27:50.797Z,1008.7
2018-12-31T04:28:51.470Z,1008.8
2018-12-31T04:29:52.192Z,1008.8
2018-12-31T04:30:52.864Z,1008.8
2018-12-31T04:31:53.536Z,1008.8
2018-12-31T04:32:54.207Z,1008.8
2018-12-31T04:33:54.879Z,1008.8
2018-12-31T04:34:55.551Z,1008.8
2018-12-31T04:35:56.231Z,1008.7
2018-12-31T04:36:56.896Z,1008.7
2018-12-31T04:37:57.571Z,1008.7
2018-12-31T04:38:58.241Z,1008.7
2018-12-31T04:39:58.946Z,1008.8
2018-12-31T04:40:59.618Z,1008.8
2018-12-31T04:42:00.291Z,1008.8
2018-12-31T04:43:00.963Z,1008.8
2018-12-31T04:44:01.634Z,1008.9
2018-12-31T04:45:02.309Z,1008.8
2018-12-31T04:46:02.980Z,1008.8
2018-12-31T04:47:03.667Z,1008.9
2018-12-31T04:48:04.372Z,1008.9
2018-12-31T04:49:05.045Z,1008.9
2018-12-31T04:50:05.719Z,1008.9
2018-12-31T04:51:06.388Z,1008.9
2018-12-31T04:52:07.071Z,1008.9
2018-12-31T04:53:07.733Z,1008.9
2018-12-31T04:54:08.404Z,1008.9
2018-12-31T04:55:09.077Z,1008.9
2018-12-31T04:56:09.748Z,1008.9
2018-12-31T04:57:10.420Z,1008.9
2018-12-31T04:58:11.094Z,1008.9
2018-12-31T04:59:11.771Z,1008.9
2018-12-31T05:00:12.438Z,1008.9
2018-12-31T05:01:13.107Z,1008.9
2018-12-31T05:02:13.780Z,1008.9
2018-12-31T05:03:14.452Z,1008.9
2018-12-31T05:04:15.125Z,1008.8
2018-12-31T05:05:15.800Z,1008.9
2018-12-31T05:06:16.519Z,1008.9
2018-12-31T05:07:17.189Z,1008.9
2018-12-31T05:08:17.861Z,1008.9
2018-12-31T05:09:18.535Z,1008.9
2018-12-31T05:10:19.207Z,1008.9
2018-12-31T05:11:19.881Z,1008.9
2018-12-31T05:12:20.554Z,1008.9
2018-12-31T05:13:21.228Z,1008.9
2018-12-31T05:14:21.899Z,1008.9
2018-12-31T05:15:22.571Z,1008.9
2018-12-31T05:16:23.242Z,1008.9
2018-12-31T05:17:23.914Z,1008.9
2018-12-31T05:18:24.589Z,1008.9
2018-12-31T05:19:25.259Z,1008.9
2018-12-31T05:20:25.930Z,1008.9
2018-12-31T05:21:26.603Z,1008.9
2018-12-31T05:22:27.275Z,1008.9
2018-12-31T05:23:27.946Z,1008.9
2018-12-31T05:24:28.619Z,1008.9
2018-12-31T05:25:29.294Z,1008.9
2018-12-31T05:26:29.961Z,1008.9
2018-12-31T05:27:30.633Z,1008.9
2018-12-31T05:28:31.307Z,1009.0
2018-12-31T05:29:31.981Z,1009.0
2018-12-31T05:30:32.651Z,1008.9
2018-12-31T05:31:33.325Z,1009.0
2018-12-31T05:32:33.996Z,1008.9
2018-12-31T05:33:34.669Z,1009.0
2018-12-31T05:34:35.341Z,1009.0
2018-12-31T05:35:36.012Z,1009.0
2018-12-31T05:36:36.686Z,1008.9
2018-12-31T05:37:37.358Z,1009.0
2018-12-31T05:38:38.031Z,1008.9
2018-12-31T05:39:38.703Z,1008.9
2018-12-31T05:40:39.373Z,1009.0
2018-12-31T05:41:40.047Z,1009.0
2018-12-31T05:42:40.719Z,1009.0
2018-12-31T05:43:41.392Z,1009.0
2018-12-31T05:44:42.063Z,1009.0
2018-12-31T05:45:42.735Z,1009.1
2018-12-31T05:46:43.408Z,1009.0
2018-12-31T05:47:44.079Z,1009.0
2018-12-31T05:48:44.755Z,1009.1
2018-12-31T05:49:45.424Z,1009.0
2018-12-31T05:50:46.134Z,1009.0
2018-12-31T05:51:46.806Z,1009.0
2018-12-31T05:52:47.480Z,1009.0
2018-12-31T05:53:48.200Z,1009.0
2018-12-31T05:54:48.873Z,1009.0
2018-12-31T05:55:49.547Z,1009.0
2018-12-31T05:56:50.220Z,1009.0
2018-12-31T05:57:50.888Z,1009.0
2018-12-31T05:58:51.561Z,1009.0
2018-12-31T05:59:52.234Z,1009.0
2018-12-31T06:00:52.905Z,1008.9
2018-12-31T06:01:53.579Z,1009.0
2018-12-31T06:02:54.301Z,1008.9
2018-12-31T06:03:54.973Z,1008.9
2018-12-31T06:04:55.644Z,1008.9
2018-12-31T06:05:56.316Z,1008.9
2018-12-31T06:06:56.989Z,1009.0
2018-12-31T06:07:57.662Z,1009.0
2018-12-31T06:08:58.334Z,1009.0
2018-12-31T06:09:59.006Z,1009.0
2018-12-31T06:10:59.679Z,1009.0
2018-12-31T06:12:00.351Z,1009.0
2018-12-31T06:13:01.023Z,1009.0
2018-12-31T06:14:01.694Z,1009.0
2018-12-31T06:15:02.391Z,1009.1
2018-12-31T06:16:03.088Z,1009.1
2018-12-31T06:17:05.183Z,1009.1
2018-12-31T06:18:05.429Z,1009.1
2018-12-31T06:19:06.098Z,1009.1
2018-12-31T06:20:06.769Z,1009.1
2018-12-31T06:21:07.441Z,1009.1
2018-12-31T06:22:08.112Z,1009.1
2018-12-31T06:23:08.786Z,1009.1
2018-12-31T06:24:10.589Z,1009.1
2018-12-31T06:25:11.126Z,1009.1
2018-12-31T06:26:11.847Z,1009.1
2018-12-31T06:27:12.515Z,1009.1
2018-12-31T06:28:13.185Z,1009.1
2018-12-31T06:29:13.861Z,1009.1
2018-12-31T06:30:14.530Z,1009.1
2018-12-31T06:31:15.200Z,1009.1
2018-12-31T06:32:15.873Z,1009.2
2018-12-31T06:33:16.546Z,1009.2
2018-12-31T06:34:17.218Z,1009.2
2018-12-31T06:35:17.891Z,1009.1
2018-12-31T06:36:18.561Z,1009.2
2018-12-31T06:37:19.234Z,1009.2
2018-12-31T06:38:19.905Z,1009.2
2018-12-31T06:39:20.577Z,1009.2
2018-12-31T06:40:21.253Z,1009.2
2018-12-31T06:41:21.922Z,1009.2
2018-12-31T06:42:22.597Z,1009.1
2018-12-31T06:43:23.268Z,1009.2
2018-12-31T06:44:23.943Z,1009.1
2018-12-31T06:45:24.612Z,1009.1
2018-12-31T06:46:25.288Z,1009.1
2018-12-31T06:47:25.957Z,1009.1
2018-12-31T06:48:26.627Z,1009.2
2018-12-31T06:49:27.299Z,1009.2
2018-12-31T06:50:27.973Z,1009.2
2018-12-31T06:51:28.646Z,1009.2
2018-12-31T06:52:29.365Z,1009.2
2018-12-31T06:53:30.039Z,1009.2
2018-12-31T06:54:30.709Z,1009.2
2018-12-31T06:55:31.383Z,1009.2
2018-12-31T06:56:32.058Z,1009.1
2018-12-31T06:57:32.727Z,1009.1
2018-12-31T06:58:33.400Z,1009.1
2018-12-31T06:59:34.071Z,1009.1
2018-12-31T07:00:34.742Z,1009.2
2018-12-31T07:01:35.414Z,1009.2
2018-12-31T07:02:36.086Z,1009.2
2018-12-31T07:03:36.759Z,1009.2
2018-12-31T07:04:37.431Z,1009.2
2018-12-31T07:05:38.104Z,1009.2
2018-12-31T07:06:38.777Z,1009.3
2018-12-31T07:07:39.449Z,1009.3
2018-12-31T07:08:40.124Z,1009.3
2018-12-31T07:09:40.798Z,1009.4
2018-12-31T07:10:41.470Z,1009.4
2018-12-31T07:11:42.144Z,1009.4
2018-12-31T07:12:42.818Z,1009.5
2018-12-31T07:13:43.492Z,1009.5
2018-12-31T07:14:44.166Z,1009.5
2018-12-31T07:15:44.839Z,1009.5
2018-12-31T07:16:45.512Z,1009.5
2018-12-31T07:17:46.186Z,1009.6
2018-12-31T07:18:46.860Z,1009.6
2018-12-31T07:19:47.533Z,1009.6
2018-12-31T07:20:48.207Z,1009.6
2018-12-31T07:21:48.880Z,1009.6
2018-12-31T07:22:49.551Z,1009.6
2018-12-31T07:23:50.225Z,1009.6
2018-12-31T07:24:50.899Z,1009.6
2018-12-31T07:25:51.621Z,1009.6
2018-12-31T07:26:52.295Z,1009.6
2018-12-31T07:27:52.967Z,1009.7
2018-12-31T07:28:53.640Z,1009.7
2018-12-31T07:29:54.318Z,1009.8
2018-12-31T07:30:54.989Z,1009.8
2018-12-31T07:31:55.664Z,1009.8
2018-12-31T07:32:56.345Z,1009.8
2018-12-31T07:33:57.062Z,1009.8
2018-12-31T07:34:57.731Z,1009.9
2018-12-31T07:35:58.408Z,1009.9
2018-12-31T07:36:59.077Z,1009.8
2018-12-31T07:37:59.750Z,1009.8
2018-12-31T07:39:00.424Z,1009.9
2018-12-31T07:40:01.102Z,1009.8
2018-12-31T07:41:01.822Z,1009.8
2018-12-31T07:42:02.496Z,1009.9
2018-12-31T07:43:03.168Z,1009.9
2018-12-31T07:44:03.846Z,1009.9
2018-12-31T07:45:04.519Z,1009.8
2018-12-31T07:46:05.193Z,1009.8
2018-12-31T07:47:05.869Z,1009.7
2018-12-31T07:48:06.545Z,1009.7
2018-12-31T07:49:07.268Z,1009.7
2018-12-31T07:50:07.942Z,1009.7
2018-12-31T07:51:08.616Z,1009.7
2018-12-31T07:52:09.292Z,1009.7
2018-12-31T07:53:09.966Z,1009.7
2018-12-31T07:54:10.639Z,1009.7
2018-12-31T07:55:11.342Z,1009.6
2018-12-31T07:56:12.019Z,1009.6
2018-12-31T07:57:12.693Z,1009.6
2018-12-31T07:58:13.369Z,1009.6
2018-12-31T07:59:14.043Z,1009.7
2018-12-31T08:00:14.718Z,1009.7
2018-12-31T08:01:15.414Z,1009.6
2018-12-31T08:02:16.093Z,1009.7
2018-12-31T08:03:16.762Z,1009.7
2018-12-31T08:04:17.442Z,1009.7
2018-12-31T08:05:18.112Z,1009.7
2018-12-31T08:06:18.787Z,1009.7
2018-12-31T08:07:19.463Z,1009.7
2018-12-31T08:08:20.138Z,1009.7
2018-12-31T08:09:20.814Z,1009.7
2018-12-31T08:10:21.489Z,1009.7
2018-12-31T08:11:22.166Z,1009.7
2018-12-31T08:12:22.842Z,1009.8
2018-12-31T08:13:23.518Z,1009.8
2018-12-31T08:14:24.192Z,1009.8
2018-12-31T08:15:24.867Z,1009.8
2018-12-31T08:16:25.551Z,1009.7
2018-12-31T08:17:26.271Z,1009.7
2018-12-31T08:18:26.949Z,1009.7
2018-12-31T08:19:27.626Z,1009.7
2018-12-31T08:20:28.301Z,1009.8
2018-12-31T08:21:28.976Z,1009.8
2018-12-31T08:22:29.653Z,1009.8
2018-12-31T08:23:30.333Z,1009.8
2018-12-31T08:24:31.006Z,1009.7
2018-12-31T08:25:31.782Z,1009.7
2018-12-31T08:26:32.506Z,1009.6
2018-12-31T08:27:33.183Z,1009.7
2018-12-31T08:28:33.859Z,1009.7
2018-12-31T08:29:34.535Z,1009.7
2018-12-31T08:30:35.211Z,1009.7
2018-12-31T08:31:35.887Z,1009.6
2018-12-31T08:32:36.563Z,1009.7
2018-12-31T08:33:37.238Z,1009.7
2018-12-31T08:34:37.913Z,1009.7
2018-12-31T08:35:38.590Z,1009.8
2018-12-31T08:36:39.265Z,1009.8
2018-12-31T08:37:39.941Z,1009.8
2018-12-31T08:38:40.617Z,1009.9
2018-12-31T08:39:41.294Z,1009.9
2018-12-31T08:40:41.969Z,1009.9
2018-12-31T08:41:42.644Z,1009.9
2018-12-31T08:42:43.368Z,1010.0
2018-12-31T08:43:44.043Z,1010.0
2018-12-31T08:44:44.719Z,1010.0
2018-12-31T08:45:45.397Z,1010.0
2018-12-31T08:46:46.075Z,1010.0
2018-12-31T08:47:46.746Z,1010.0
2018-12-31T08:48:47.423Z,1010.0
2018-12-31T08:49:48.099Z,1010.0
2018-12-31T08:50:48.773Z,1010.0
2018-12-31T08:51:49.450Z,1010.0
2018-12-31T08:52:50.125Z,1009.9
2018-12-31T08:53:50.802Z,1009.9
2018-12-31T08:54:51.482Z,1009.9
2018-12-31T08:55:52.204Z,1009.9
2018-12-31T08:56:52.879Z,1009.9
2018-12-31T08:57:53.602Z,1010.0
2018-12-31T08:58:54.279Z,1010.0
2018-12-31T08:59:54.954Z,1009.9
2018-12-31T09:00:55.628Z,1010.0
2018-12-31T09:01:56.305Z,1010.0
2018-12-31T09:02:57.018Z,1009.9
2018-12-31T09:03:57.692Z,1009.9
2018-12-31T09:04:58.369Z,1009.9
2018-12-31T09:05:59.095Z,1009.9
2018-12-31T09:06:59.773Z,1009.9
2018-12-31T09:08:00.449Z,1009.9
2018-12-31T09:09:01.128Z,1009.9
2018-12-31T09:10:01.828Z,1009.8
2018-12-31T09:11:02.483Z,1009.9
2018-12-31T09:12:03.159Z,1009.8
2018-12-31T09:13:03.836Z,1009.8
2018-12-31T09:14:04.565Z,1009.9
2018-12-31T09:15:05.241Z,1009.9
2018-12-31T09:16:05.920Z,1010.0
2018-12-31T09:17:06.598Z,1009.9
2018-12-31T09:18:07.275Z,1009.9
2018-12-31T09:19:08.001Z,1009.9
2018-12-31T09:20:08.677Z,1010.0
2018-12-31T09:21:09.356Z,1010.0
2018-12-31T09:22:10.031Z,1010.0
2018-12-31T09:23:10.710Z,1010.0
2018-12-31T09:24:11.387Z,1010.1
2018-12-31T09:25:12.063Z,1010.1
2018-12-31T09:26:12.742Z,1010.1
2018-12-31T09:27:13.420Z,1010.1
2018-12-31T09:28:14.096Z,1010.1
2018-12-31T09:29:14.774Z,1010.2
2018-12-31T09:30:15.451Z,1010.2
2018-12-31T09:31:16.127Z,1010.2
2018-12-31T09:32:16.802Z,1010.2
2018-12-31T09:33:17.482Z,1010.2
2018-12-31T09:34:18.156Z,1010.2
2018-12-31T09:35:18.832Z,1010.2
2018-12-31T09:36:19.510Z,1010.1
2018-12-31T09:37:20.238Z,1010.2
2018-12-31T09:38:20.916Z,1010.2
2018-12-31T09:39:21.594Z,1010.1
2018-12-31T09:40:22.272Z,1010.2
2018-12-31T09:41:22.949Z,1010.2
2018-12-31T09:42:23.627Z,1010.2
2018-12-31T09:43:24.305Z,1010.2
2018-12-31T09:44:24.981Z,1010.2
2018-12-31T09:45:25.660Z,1010.2
2018-12-31T09:46:26.337Z,1010.2
2018-12-31T09:47:27.014Z,1010.1
2018-12-31T09:48:27.691Z,1010.2
2018-12-31T09:49:28.369Z,1010.1
2018-12-31T09:50:29.046Z,1010.2
2018-12-31T09:51:29.724Z,1010.2
2018-12-31T09:52:30.449Z,1010.1
2018-12-31T09:53:31.127Z,1010.1
2018-12-31T09:54:31.804Z,1010.1
2018-12-31T09:55:32.482Z,1010.1
2018-12-31T09:56:33.159Z,1010.0
2018-12-31T09:57:33.837Z,1010.0
2018-12-31T09:58:36.339Z,1010.1
2018-12-31T09:59:36.183Z,1010.0
2018-12-31T10:00:36.859Z,1010.0
2018-12-31T10:01:37.538Z,1010.0
2018-12-31T10:02:38.216Z,1010.0
2018-12-31T10:03:38.893Z,1010.0
2018-12-31T10:04:39.572Z,1010.0
2018-12-31T10:05:40.250Z,1010.0
2018-12-31T10:06:40.928Z,1009.9
2018-12-31T10:07:41.604Z,1009.9
2018-12-31T10:08:49.048Z,1009.9
2018-12-31T10:09:43.950Z,1009.9
2018-12-31T10:10:44.627Z,1009.9
2018-12-31T10:11:45.307Z,1009.9
2018-12-31T10:12:45.986Z,1009.9
2018-12-31T10:13:46.665Z,1009.8
2018-12-31T10:14:47.393Z,1009.9
2018-12-31T10:15:48.120Z,1009.9
2018-12-31T10:16:48.798Z,1009.9
2018-12-31T10:17:49.479Z,1009.9
2018-12-31T10:18:50.157Z,1009.9
2018-12-31T10:19:50.836Z,1009.9
2018-12-31T10:20:51.516Z,1009.9
2018-12-31T10:21:52.192Z,1009.9
2018-12-31T10:22:52.871Z,1009.9
2018-12-31T10:23:53.544Z,1009.9
2018-12-31T10:24:54.222Z,1009.9
2018-12-31T10:25:54.901Z,1009.9
2018-12-31T10:26:55.578Z,1009.9
2018-12-31T10:27:56.256Z,1009.9
2018-12-31T10:28:56.932Z,1009.9
2018-12-31T10:29:57.612Z,1009.9
2018-12-31T10:30:58.290Z,1009.8
2018-12-31T10:31:58.968Z,1009.8
2018-12-31T10:32:59.645Z,1009.8
2018-12-31T10:34:00.320Z,1009.8
2018-12-31T10:35:00.999Z,1009.8
2018-12-31T10:36:01.678Z,1009.8
2018-12-31T10:37:02.356Z,1009.8
2018-12-31T10:38:03.035Z,1009.8
2018-12-31T10:39:03.712Z,1009.8
2018-12-31T10:40:04.437Z,1009.8
2018-12-31T10:41:05.121Z,1009.8
2018-12-31T10:42:05.842Z,1009.8
2018-12-31T10:43:06.520Z,1009.7
2018-12-31T10:44:07.199Z,1009.7
2018-12-31T10:45:07.880Z,1009.7
2018-12-31T10:46:08.555Z,1009.7
2018-12-31T10:47:09.239Z,1009.7
2018-12-31T10:48:09.909Z,1009.7
2018-12-31T10:49:10.589Z,1009.6
2018-12-31T10:50:11.267Z,1009.6
2018-12-31T10:51:11.943Z,1009.6
2018-12-31T10:52:12.622Z,1009.6
2018-12-31T10:53:13.299Z,1009.6
2018-12-31T10:54:13.977Z,1009.6
2018-12-31T10:55:14.657Z,1009.5
2018-12-31T10:56:15.333Z,1009.5
2018-12-31T10:57:17.792Z,1009.5
2018-12-31T10:58:17.680Z,1009.4
2018-12-31T10:59:18.355Z,1009.4
2018-12-31T11:00:19.033Z,1009.4
2018-12-31T11:01:19.711Z,1009.4
2018-12-31T11:02:20.390Z,1009.3
2018-12-31T11:03:21.065Z,1009.4
2018-12-31T11:04:21.743Z,1009.4
2018-12-31T11:05:22.419Z,1009.4
2018-12-31T11:06:23.098Z,1009.3
2018-12-31T11:07:23.776Z,1009.3
2018-12-31T11:08:24.455Z,1009.3
2018-12-31T11:09:25.131Z,1009.2
2018-12-31T11:10:25.807Z,1009.2
2018-12-31T11:11:26.486Z,1009.2
2018-12-31T11:12:27.164Z,1009.3
2018-12-31T11:13:27.843Z,1009.3
2018-12-31T11:14:28.516Z,1009.3
2018-12-31T11:15:29.247Z,1009.3
2018-12-31T11:16:29.922Z,1009.3
2018-12-31T11:17:30.599Z,1009.3
2018-12-31T11:18:31.277Z,1009.3
2018-12-31T11:19:33.491Z,1009.3
2018-12-31T11:20:33.626Z,1009.3
2018-12-31T11:21:34.303Z,1009.3
2018-12-31T11:22:34.980Z,1009.3
2018-12-31T11:23:35.656Z,1009.4
2018-12-31T11:24:36.333Z,1009.4
2018-12-31T11:25:37.865Z,1009.4
2018-12-31T11:26:38.535Z,1009.4
2018-12-31T11:27:39.214Z,1009.4
2018-12-31T11:28:39.891Z,1009.3
2018-12-31T11:29:40.568Z,1009.4
2018-12-31T11:30:41.248Z,1009.3
2018-12-31T11:31:41.924Z,1009.3
2018-12-31T11:32:42.601Z,1009.4
2018-12-31T11:33:43.280Z,1009.3
2018-12-31T11:34:43.957Z,1009.3
2018-12-31T11:35:44.637Z,1009.3
2018-12-31T11:36:45.363Z,1009.3
2018-12-31T11:37:46.040Z,1009.3
2018-12-31T11:38:46.716Z,1009.3
2018-12-31T11:39:47.395Z,1009.3
2018-12-31T11:40:48.073Z,1009.3
2018-12-31T11:41:48.762Z,1009.3
2018-12-31T11:42:49.428Z,1009.3
2018-12-31T11:43:50.105Z,1009.3
2018-12-31T11:44:50.784Z,1009.3
2018-12-31T11:45:51.459Z,1009.3
2018-12-31T11:46:52.136Z,1009.2
2018-12-31T11:47:52.817Z,1009.2
2018-12-31T11:48:53.493Z,1009.2
2018-12-31T11:49:54.171Z,1009.1
2018-12-31T11:50:54.847Z,1009.2
2018-12-31T11:51:55.525Z,1009.1
2018-12-31T11:52:56.209Z,1009.1
2018-12-31T11:53:56.880Z,1009.1
2018-12-31T11:54:57.556Z,1009.1
2018-12-31T11:55:58.234Z,1009.1
2018-12-31T11:56:58.910Z,1009.1
2018-12-31T11:57:59.638Z,1009.1
2018-12-31T11:59:00.316Z,1009.1
2018-12-31T12:00:00.996Z,1009.0
2018-12-31T12:01:01.672Z,1009.1
2018-12-31T12:02:02.349Z,1009.0
2018-12-31T12:03:03.092Z,1009.1
2018-12-31T12:04:03.722Z,1009.1
2018-12-31T12:05:04.399Z,1009.1
2018-12-31T12:06:05.077Z,1009.1
2018-12-31T12:07:05.753Z,1009.1
2018-12-31T12:08:06.430Z,1009.1
2018-12-31T12:09:07.111Z,1009.0
2018-12-31T12:10:07.789Z,1009.0
2018-12-31T12:11:08.466Z,1009.0
2018-12-31T12:12:09.194Z,1009.0
2018-12-31T12:13:10.153Z,1009.0
2018-12-31T12:14:10.835Z,1009.0
2018-12-31T12:15:11.506Z,1009.0
2018-12-31T12:16:12.185Z,1009.0
2018-12-31T12:17:12.912Z,1008.9
2018-12-31T12:18:13.587Z,1009.0
2018-12-31T12:19:14.265Z,1008.9
2018-12-31T12:20:14.964Z,1009.0
2018-12-31T12:21:15.618Z,1008.9
2018-12-31T12:22:16.296Z,1008.9
2018-12-31T12:23:17.240Z,1008.9
2018-12-31T12:24:17.917Z,1008.9
2018-12-31T12:25:18.591Z,1008.9
2018-12-31T12:26:19.275Z,1008.9
2018-12-31T12:27:19.997Z,1008.9
2018-12-31T12:28:20.673Z,1008.9
2018-12-31T12:29:21.349Z,1008.8
2018-12-31T12:30:22.024Z,1008.9
2018-12-31T12:31:22.703Z,1008.8
2018-12-31T12:32:23.381Z,1008.8
2018-12-31T12:33:24.059Z,1008.8
2018-12-31T12:34:24.739Z,1008.8
2018-12-31T12:35:25.417Z,1008.8
2018-12-31T12:36:26.138Z,1008.8
2018-12-31T12:37:26.815Z,1008.8